sensor_id;sensor_type;location;lat;lon;timestamp;pressure;altitude;pressure_sealevel;temperature;humidity
30967;BME280;17649;51.836;8.330;2023-11-19T00:02:10;100369.84;;;10.04;100.00
30967;BME280;17649;51.836;8.330;2023-11-19T00:05:10;100373.72;;;10.11;100.00
30967;BME280;17649;51.836;8.330;2023-11-19T00:08:14;100370.41;;;10.09;100.00
30967;BME280;17649;51.836;8.330;2023-11-19T00:11:14;100362.03;;;10.20;100.00
30967;BME280;17649;51.836;8.330;2023-11-19T00:14:15;100358.16;;;10.13;100.00
30967;BME280;17649;51.836;8.330;2023-11-19T00:17:17;100359.22;;;10.09;100.00
30967;BME280;17649;51.836;8.330;2023-11-19T00:20:18;100357.78;;;10.19;100.00
30967;BME280;17649;51.836;8.330;2023-11-19T00:23:19;100374.97;;;10.20;100.00
30967;BME280;17649;51.836;8.330;2023-11-19T00:26:19;100363.06;;;10.18;100.00
30967;BME280;17649;51.836;8.330;2023-11-19T00:29:20;100349.63;;;10.27;100.00
30967;BME280;17649;51.836;8.330;2023-11-19T00:32:21;100339.00;;;10.31;100.00
30967;BME280;17649;51.836;8.330;2023-11-19T00:35:21;100341.97;;;10.39;100.00
30967;BME280;17649;51.836;8.330;2023-11-19T00:38:21;100349.34;;;10.31;100.00
30967;BME280;17649;51.836;8.330;2023-11-19T00:41:22;100334.59;;;10.33;100.00
30967;BME280;17649;51.836;8.330;2023-11-19T00:44:22;100332.81;;;10.34;100.00
30967;BME280;17649;51.836;8.330;2023-11-19T00:47:23;100327.66;;;10.34;100.00
30967;BME280;17649;51.836;8.330;2023-11-19T00:50:23;100333.94;;;10.30;100.00
30967;BME280;17649;51.836;8.330;2023-11-19T00:53:24;100321.28;;;10.39;100.00
30967;BME280;17649;51.836;8.330;2023-11-19T00:56:24;100320.28;;;10.42;100.00
30967;BME280;17649;51.836;8.330;2023-11-19T00:59:24;100320.34;;;10.40;100.00
30967;BME280;17649;51.836;8.330;2023-11-19T01:02:25;100318.97;;;10.35;100.00
30967;BME280;17649;51.836;8.330;2023-11-19T01:05:25;100311.84;;;10.24;100.00
30967;BME280;17649;51.836;8.330;2023-11-19T01:08:26;100296.91;;;10.43;100.00
30967;BME280;17649;51.836;8.330;2023-11-19T01:11:26;100310.00;;;10.40;100.00
30967;BME280;17649;51.836;8.330;2023-11-19T01:14:28;100295.81;;;10.62;100.00
30967;BME280;17649;51.836;8.330;2023-11-19T01:17:28;100278.44;;;10.64;100.00
30967;BME280;17649;51.836;8.330;2023-11-19T01:20:31;100289.50;;;10.52;100.00
30967;BME280;17649;51.836;8.330;2023-11-19T01:23:35;100294.03;;;10.48;100.00
30967;BME280;17649;51.836;8.330;2023-11-19T01:26:35;100306.69;;;10.53;100.00
30967;BME280;17649;51.836;8.330;2023-11-19T01:29:35;100302.84;;;10.60;100.00
30967;BME280;17649;51.836;8.330;2023-11-19T01:32:38;100297.00;;;10.70;100.00
30967;BME280;17649;51.836;8.330;2023-11-19T01:35:40;100304.03;;;10.68;100.00
30967;BME280;17649;51.836;8.330;2023-11-19T01:38:41;100287.75;;;10.66;100.00
30967;BME280;17649;51.836;8.330;2023-11-19T01:41:41;100278.59;;;10.89;100.00
30967;BME280;17649;51.836;8.330;2023-11-19T01:44:42;100280.09;;;10.79;100.00
30967;BME280;17649;51.836;8.330;2023-11-19T01:47:42;100279.25;;;10.79;100.00
30967;BME280;17649;51.836;8.330;2023-11-19T01:50:42;100264.47;;;10.81;100.00
30967;BME280;17649;51.836;8.330;2023-11-19T01:53:43;100268.69;;;10.96;100.00
30967;BME280;17649;51.836;8.330;2023-11-19T01:56:44;100257.88;;;11.03;100.00
30967;BME280;17649;51.836;8.330;2023-11-19T01:59:45;100250.47;;;10.97;100.00
30967;BME280;17649;51.836;8.330;2023-11-19T02:02:48;100246.88;;;10.86;100.00
30967;BME280;17649;51.836;8.330;2023-11-19T02:05:49;100242.38;;;10.89;100.00
30967;BME280;17649;51.836;8.330;2023-11-19T02:08:50;100219.78;;;11.05;100.00
30967;BME280;17649;51.836;8.330;2023-11-19T02:11:52;100215.75;;;11.14;100.00
30967;BME280;17649;51.836;8.330;2023-11-19T02:14:52;100219.88;;;11.04;100.00
30967;BME280;17649;51.836;8.330;2023-11-19T02:17:52;100218.47;;;10.98;100.00
30967;BME280;17649;51.836;8.330;2023-11-19T02:20:54;100223.28;;;11.04;100.00
30967;BME280;17649;51.836;8.330;2023-11-19T02:23:54;100217.09;;;11.07;100.00
30967;BME280;17649;51.836;8.330;2023-11-19T02:27:08;100206.78;;;11.20;100.00
30967;BME280;17649;51.836;8.330;2023-11-19T02:30:11;100202.13;;;11.25;100.00
30967;BME280;17649;51.836;8.330;2023-11-19T02:33:14;100199.97;;;11.31;100.00
30967;BME280;17649;51.836;8.330;2023-11-19T02:36:15;100194.88;;;11.30;100.00
30967;BME280;17649;51.836;8.330;2023-11-19T02:39:16;100186.09;;;11.32;100.00
30967;BME280;17649;51.836;8.330;2023-11-19T02:42:21;100184.88;;;11.38;100.00
30967;BME280;17649;51.836;8.330;2023-11-19T02:45:23;100191.50;;;11.42;100.00
30967;BME280;17649;51.836;8.330;2023-11-19T02:48:23;100199.25;;;11.42;100.00
30967;BME280;17649;51.836;8.330;2023-11-19T02:51:24;100203.56;;;11.56;100.00
30967;BME280;17649;51.836;8.330;2023-11-19T02:54:24;100198.72;;;11.64;100.00
30967;BME280;17649;51.836;8.330;2023-11-19T02:57:31;100216.31;;;11.59;100.00
30967;BME280;17649;51.836;8.330;2023-11-19T03:00:32;100207.63;;;11.73;100.00
30967;BME280;17649;51.836;8.330;2023-11-19T03:03:36;100197.06;;;11.76;100.00
30967;BME280;17649;51.836;8.330;2023-11-19T03:06:40;100198.97;;;11.86;100.00
30967;BME280;17649;51.836;8.330;2023-11-19T03:09:41;100184.78;;;11.92;100.00
30967;BME280;17649;51.836;8.330;2023-11-19T03:12:43;100167.84;;;11.99;100.00
30967;BME280;17649;51.836;8.330;2023-11-19T03:15:44;100156.75;;;12.10;100.00
30967;BME280;17649;51.836;8.330;2023-11-19T03:18:44;100160.06;;;12.12;100.00
30967;BME280;17649;51.836;8.330;2023-11-19T03:21:44;100158.41;;;12.11;100.00
30967;BME280;17649;51.836;8.330;2023-11-19T03:24:45;100162.44;;;12.15;100.00
30967;BME280;17649;51.836;8.330;2023-11-19T03:27:45;100156.84;;;12.21;100.00
30967;BME280;17649;51.836;8.330;2023-11-19T03:30:45;100158.09;;;12.15;100.00
30967;BME280;17649;51.836;8.330;2023-11-19T03:33:46;100158.41;;;12.23;100.00
30967;BME280;17649;51.836;8.330;2023-11-19T03:36:46;100149.78;;;12.23;100.00
30967;BME280;17649;51.836;8.330;2023-11-19T03:39:47;100159.22;;;12.24;100.00
30967;BME280;17649;51.836;8.330;2023-11-19T03:42:47;100155.50;;;12.15;100.00
30967;BME280;17649;51.836;8.330;2023-11-19T03:45:47;100151.13;;;12.16;100.00
30967;BME280;17649;51.836;8.330;2023-11-19T03:48:48;100159.13;;;12.26;100.00
30967;BME280;17649;51.836;8.330;2023-11-19T03:51:49;100156.81;;;12.34;100.00
30967;BME280;17649;51.836;8.330;2023-11-19T03:54:49;100166.19;;;12.23;100.00
30967;BME280;17649;51.836;8.330;2023-11-19T03:57:50;100173.31;;;12.33;100.00
30967;BME280;17649;51.836;8.330;2023-11-19T04:00:50;100172.19;;;12.37;100.00
30967;BME280;17649;51.836;8.330;2023-11-19T04:03:50;100181.31;;;12.30;100.00
30967;BME280;17649;51.836;8.330;2023-11-19T04:06:50;100183.69;;;12.33;100.00
30967;BME280;17649;51.836;8.330;2023-11-19T04:09:51;100184.41;;;12.35;100.00
30967;BME280;17649;51.836;8.330;2023-11-19T04:12:51;100183.41;;;12.37;100.00
30967;BME280;17649;51.836;8.330;2023-11-19T04:15:51;100170.84;;;12.31;100.00
30967;BME280;17649;51.836;8.330;2023-11-19T04:18:52;100162.22;;;12.31;100.00
30967;BME280;17649;51.836;8.330;2023-11-19T04:21:52;100170.31;;;12.39;100.00
30967;BME280;17649;51.836;8.330;2023-11-19T04:24:52;100164.47;;;12.48;100.00
30967;BME280;17649;51.836;8.330;2023-11-19T04:27:53;100170.19;;;12.40;100.00
30967;BME280;17649;51.836;8.330;2023-11-19T04:30:53;100160.88;;;12.38;100.00
30967;BME280;17649;51.836;8.330;2023-11-19T04:33:53;100156.19;;;12.30;100.00
30967;BME280;17649;51.836;8.330;2023-11-19T04:36:55;100160.88;;;12.38;100.00
30967;BME280;17649;51.836;8.330;2023-11-19T04:39:55;100155.56;;;12.39;100.00
30967;BME280;17649;51.836;8.330;2023-11-19T04:42:56;100160.78;;;12.27;100.00
30967;BME280;17649;51.836;8.330;2023-11-19T04:45:56;100153.72;;;12.29;100.00
30967;BME280;17649;51.836;8.330;2023-11-19T04:48:56;100151.84;;;12.31;100.00
30967;BME280;17649;51.836;8.330;2023-11-19T04:51:57;100150.91;;;12.32;100.00
30967;BME280;17649;51.836;8.330;2023-11-19T04:54:57;100147.09;;;12.24;100.00
30967;BME280;17649;51.836;8.330;2023-11-19T04:57:57;100141.19;;;12.22;100.00
30967;BME280;17649;51.836;8.330;2023-11-19T05:00:57;100127.41;;;12.09;100.00
30967;BME280;17649;51.836;8.330;2023-11-19T05:03:58;100143.66;;;12.24;100.00
30967;BME280;17649;51.836;8.330;2023-11-19T05:07:01;100131.41;;;12.26;100.00
30967;BME280;17649;51.836;8.330;2023-11-19T05:10:02;100137.81;;;12.33;100.00
30967;BME280;17649;51.836;8.330;2023-11-19T05:13:04;100153.50;;;12.32;100.00
30967;BME280;17649;51.836;8.330;2023-11-19T05:16:05;100153.69;;;12.41;100.00
30967;BME280;17649;51.836;8.330;2023-11-19T05:19:05;100155.38;;;12.30;100.00
30967;BME280;17649;51.836;8.330;2023-11-19T05:22:05;100166.56;;;12.30;100.00
30967;BME280;17649;51.836;8.330;2023-11-19T05:25:08;100166.78;;;12.40;100.00
30967;BME280;17649;51.836;8.330;2023-11-19T05:28:11;100177.16;;;12.40;100.00
30967;BME280;17649;51.836;8.330;2023-11-19T05:31:15;100170.94;;;12.42;100.00
30967;BME280;17649;51.836;8.330;2023-11-19T05:34:15;100170.94;;;12.42;100.00
30967;BME280;17649;51.836;8.330;2023-11-19T05:37:16;100160.66;;;12.41;100.00
30967;BME280;17649;51.836;8.330;2023-11-19T05:40:16;100152.88;;;12.41;100.00
30967;BME280;17649;51.836;8.330;2023-11-19T05:43:17;100169.66;;;12.48;100.00
30967;BME280;17649;51.836;8.330;2023-11-19T05:46:17;100166.78;;;12.40;100.00
30967;BME280;17649;51.836;8.330;2023-11-19T05:49:18;100172.25;;;12.48;100.00
30967;BME280;17649;51.836;8.330;2023-11-19T05:52:19;100178.22;;;12.37;100.00
30967;BME280;17649;51.836;8.330;2023-11-19T05:55:19;100180.50;;;12.29;100.00
30967;BME280;17649;51.836;8.330;2023-11-19T05:58:19;100179.03;;;12.38;100.00
30967;BME280;17649;51.836;8.330;2023-11-19T06:01:20;100174.91;;;12.22;100.00
30967;BME280;17649;51.836;8.330;2023-11-19T06:04:21;100169.50;;;12.00;100.00
30967;BME280;17649;51.836;8.330;2023-11-19T06:07:21;100173.66;;;12.15;100.00
30967;BME280;17649;51.836;8.330;2023-11-19T06:10:21;100178.84;;;12.28;100.00
30967;BME280;17649;51.836;8.330;2023-11-19T06:13:22;100169.72;;;12.35;100.00
30967;BME280;17649;51.836;8.330;2023-11-19T06:16:23;100166.22;;;12.47;100.00
30967;BME280;17649;51.836;8.330;2023-11-19T06:19:23;100160.44;;;12.44;100.00
30967;BME280;17649;51.836;8.330;2023-11-19T06:22:25;100155.47;;;12.41;100.00
30967;BME280;17649;51.836;8.330;2023-11-19T06:25:25;100167.81;;;12.50;100.00
30967;BME280;17649;51.836;8.330;2023-11-19T06:28:26;100157.84;;;12.31;100.00
30967;BME280;17649;51.836;8.330;2023-11-19T06:31:26;100174.34;;;12.43;100.00
30967;BME280;17649;51.836;8.330;2023-11-19T06:34:27;100173.44;;;12.18;100.00
30967;BME280;17649;51.836;8.330;2023-11-19T06:37:27;100175.09;;;12.19;100.00
30967;BME280;17649;51.836;8.330;2023-11-19T06:40:27;100173.25;;;12.21;100.00
30967;BME280;17649;51.836;8.330;2023-11-19T06:43:27;100176.03;;;12.18;100.00
30967;BME280;17649;51.836;8.330;2023-11-19T06:46:28;100190.47;;;12.22;100.00
30967;BME280;17649;51.836;8.330;2023-11-19T06:49:28;100182.97;;;12.31;100.00
30967;BME280;17649;51.836;8.330;2023-11-19T06:52:29;100190.66;;;12.19;100.00
30967;BME280;17649;51.836;8.330;2023-11-19T06:55:37;100204.78;;;12.15;100.00
30967;BME280;17649;51.836;8.330;2023-11-19T06:58:55;100197.31;;;12.11;100.00
30967;BME280;17649;51.836;8.330;2023-11-19T07:01:57;100207.25;;;12.04;100.00
30967;BME280;17649;51.836;8.330;2023-11-19T07:05:00;100203.13;;;12.02;100.00
30967;BME280;17649;51.836;8.330;2023-11-19T07:08:08;100213.91;;;12.08;100.00
30967;BME280;17649;51.836;8.330;2023-11-19T07:11:09;100206.66;;;12.13;100.00
30967;BME280;17649;51.836;8.330;2023-11-19T07:14:10;100199.09;;;12.10;100.00
30967;BME280;17649;51.836;8.330;2023-11-19T07:17:11;100199.38;;;12.18;100.00
30967;BME280;17649;51.836;8.330;2023-11-19T07:20:15;100207.47;;;12.14;100.00
30967;BME280;17649;51.836;8.330;2023-11-19T07:23:27;100187.88;;;12.10;100.00
30967;BME280;17649;51.836;8.330;2023-11-19T07:26:28;100186.00;;;12.24;100.00
30967;BME280;17649;51.836;8.330;2023-11-19T07:29:29;100191.88;;;12.52;100.00
30967;BME280;17649;51.836;8.330;2023-11-19T07:32:29;100195.44;;;12.38;100.00
30967;BME280;17649;51.836;8.330;2023-11-19T07:35:30;100211.16;;;12.48;100.00
30967;BME280;17649;51.836;8.330;2023-11-19T07:38:31;100216.38;;;12.48;100.00
30967;BME280;17649;51.836;8.330;2023-11-19T07:41:31;100206.06;;;12.59;100.00
30967;BME280;17649;51.836;8.330;2023-11-19T07:44:32;100224.69;;;12.53;100.00
30967;BME280;17649;51.836;8.330;2023-11-19T07:47:32;100226.13;;;12.44;100.00
30967;BME280;17649;51.836;8.330;2023-11-19T07:50:45;100222.94;;;12.41;100.00
30967;BME280;17649;51.836;8.330;2023-11-19T07:53:49;100213.03;;;12.46;100.00
30967;BME280;17649;51.836;8.330;2023-11-19T07:56:49;100225.50;;;12.53;100.00
30967;BME280;17649;51.836;8.330;2023-11-19T08:00:11;100225.41;;;12.42;100.00
30967;BME280;17649;51.836;8.330;2023-11-19T08:03:23;100229.16;;;12.38;100.00
30967;BME280;17649;51.836;8.330;2023-11-19T08:06:35;100208.81;;;12.32;100.00
30967;BME280;17649;51.836;8.330;2023-11-19T08:09:39;100242.63;;;12.31;100.00
30967;BME280;17649;51.836;8.330;2023-11-19T08:12:40;100244.00;;;12.36;100.00
30967;BME280;17649;51.836;8.330;2023-11-19T08:15:40;100255.41;;;12.34;100.00
30967;BME280;17649;51.836;8.330;2023-11-19T08:18:45;100257.88;;;12.61;100.00
30967;BME280;17649;51.836;8.330;2023-11-19T08:21:49;100243.13;;;12.61;100.00
30967;BME280;17649;51.836;8.330;2023-11-19T08:24:53;100247.91;;;12.67;100.00
30967;BME280;17649;51.836;8.330;2023-11-19T08:27:54;100249.69;;;12.67;100.00
30967;BME280;17649;51.836;8.330;2023-11-19T08:30:55;100257.97;;;12.59;100.00
30967;BME280;17649;51.836;8.330;2023-11-19T08:34:01;100250.50;;;12.80;100.00
30967;BME280;17649;51.836;8.330;2023-11-19T08:37:06;100252.16;;;12.68;100.00
30967;BME280;17649;51.836;8.330;2023-11-19T08:40:16;100252.66;;;12.73;100.00
30967;BME280;17649;51.836;8.330;2023-11-19T08:43:17;100254.31;;;12.74;100.00
30967;BME280;17649;51.836;8.330;2023-11-19T08:46:18;100245.72;;;12.74;100.00
30967;BME280;17649;51.836;8.330;2023-11-19T08:49:21;100259.03;;;12.93;100.00
30967;BME280;17649;51.836;8.330;2023-11-19T08:52:23;100253.91;;;12.80;100.00
30967;BME280;17649;51.836;8.330;2023-11-19T08:55:23;100257.00;;;12.86;100.00
30967;BME280;17649;51.836;8.330;2023-11-19T08:58:38;100263.25;;;12.83;100.00
30967;BME280;17649;51.836;8.330;2023-11-19T09:01:38;100275.41;;;12.82;100.00
30967;BME280;17649;51.836;8.330;2023-11-19T09:04:39;100259.19;;;12.79;100.00
30967;BME280;17649;51.836;8.330;2023-11-19T09:07:41;100270.72;;;12.88;100.00
30967;BME280;17649;51.836;8.330;2023-11-19T09:10:41;100261.41;;;12.72;100.00
30967;BME280;17649;51.836;8.330;2023-11-19T09:13:42;100274.25;;;12.87;100.00
30967;BME280;17649;51.836;8.330;2023-11-19T09:16:51;100275.47;;;12.94;100.00
30967;BME280;17649;51.836;8.330;2023-11-19T09:19:52;100279.13;;;12.78;100.00
30967;BME280;17649;51.836;8.330;2023-11-19T09:22:55;100275.38;;;12.95;100.00
30967;BME280;17649;51.836;8.330;2023-11-19T09:25:59;100279.00;;;12.93;100.00
30967;BME280;17649;51.836;8.330;2023-11-19T09:29:00;100274.38;;;13.09;100.00
30967;BME280;17649;51.836;8.330;2023-11-19T09:32:01;100285.09;;;13.04;100.00
30967;BME280;17649;51.836;8.330;2023-11-19T09:35:10;100279.31;;;13.01;100.00
30967;BME280;17649;51.836;8.330;2023-11-19T09:38:14;100280.03;;;13.03;100.00
30967;BME280;17649;51.836;8.330;2023-11-19T09:41:15;100277.16;;;12.95;100.00
30967;BME280;17649;51.836;8.330;2023-11-19T09:44:16;100280.66;;;12.94;100.00
30967;BME280;17649;51.836;8.330;2023-11-19T09:47:19;100284.53;;;12.88;100.00
30967;BME280;17649;51.836;8.330;2023-11-19T09:50:21;100289.19;;;12.96;100.00
30967;BME280;17649;51.836;8.330;2023-11-19T09:53:21;100296.03;;;12.97;100.00
30967;BME280;17649;51.836;8.330;2023-11-19T09:56:23;100288.75;;;13.02;100.00
30967;BME280;17649;51.836;8.330;2023-11-19T09:59:25;100290.91;;;13.21;100.00
30967;BME280;17649;51.836;8.330;2023-11-19T10:02:29;100290.78;;;13.22;100.00
30967;BME280;17649;51.836;8.330;2023-11-19T10:05:31;100289.34;;;13.18;100.00
30967;BME280;17649;51.836;8.330;2023-11-19T10:08:43;100276.59;;;13.39;100.00
30967;BME280;17649;51.836;8.330;2023-11-19T10:11:49;100279.75;;;13.31;100.00
30967;BME280;17649;51.836;8.330;2023-11-19T10:14:57;100277.72;;;13.11;100.00
30967;BME280;17649;51.836;8.330;2023-11-19T10:18:01;100282.13;;;13.34;100.00
30967;BME280;17649;51.836;8.330;2023-11-19T10:21:01;100278.47;;;13.37;100.00
30967;BME280;17649;51.836;8.330;2023-11-19T10:24:02;100276.66;;;13.26;100.00
30967;BME280;17649;51.836;8.330;2023-11-19T10:27:02;100270.19;;;13.32;100.00
30967;BME280;17649;51.836;8.330;2023-11-19T10:30:04;100280.34;;;13.35;100.00
30967;BME280;17649;51.836;8.330;2023-11-19T10:33:12;100279.28;;;13.37;100.00
30967;BME280;17649;51.836;8.330;2023-11-19T10:36:20;100276.41;;;13.53;100.00
30967;BME280;17649;51.836;8.330;2023-11-19T10:39:21;100280.47;;;13.57;100.00
30967;BME280;17649;51.836;8.330;2023-11-19T10:42:24;100279.84;;;13.54;100.00
30967;BME280;17649;51.836;8.330;2023-11-19T10:45:31;100279.19;;;13.63;100.00
30967;BME280;17649;51.836;8.330;2023-11-19T10:48:34;100265.53;;;13.72;100.00
30967;BME280;17649;51.836;8.330;2023-11-19T10:51:35;100268.69;;;13.64;100.00
30967;BME280;17649;51.836;8.330;2023-11-19T10:54:37;100260.56;;;13.45;100.00
30967;BME280;17649;51.836;8.330;2023-11-19T10:57:43;100261.00;;;13.39;100.00
30967;BME280;17649;51.836;8.330;2023-11-19T11:00:57;100260.91;;;13.40;100.00
30967;BME280;17649;51.836;8.330;2023-11-19T11:04:04;100265.69;;;13.10;100.00
30967;BME280;17649;51.836;8.330;2023-11-19T11:07:08;100268.47;;;13.07;100.00
30967;BME280;17649;51.836;8.330;2023-11-19T11:10:12;100265.44;;;13.13;100.00
30967;BME280;17649;51.836;8.330;2023-11-19T11:13:15;100255.88;;;13.26;100.00
30967;BME280;17649;51.836;8.330;2023-11-19T11:16:21;100253.44;;;13.36;100.00
30967;BME280;17649;51.836;8.330;2023-11-19T11:19:28;100257.53;;;13.27;100.00
30967;BME280;17649;51.836;8.330;2023-11-19T11:22:44;100265.16;;;13.05;100.00
30967;BME280;17649;51.836;8.330;2023-11-19T11:26:29;100264.09;;;12.71;100.00
30967;BME280;17649;51.836;8.330;2023-11-19T11:30:00;100260.94;;;12.78;100.00
30967;BME280;17649;51.836;8.330;2023-11-19T11:36:19;100245.47;;;13.26;100.00
30967;BME280;17649;51.836;8.330;2023-11-19T11:39:22;100248.63;;;13.42;100.00
30967;BME280;17649;51.836;8.330;2023-11-19T11:45:36;100238.94;;;13.45;100.00
30967;BME280;17649;51.836;8.330;2023-11-19T11:48:44;100240.59;;;13.46;100.00
30967;BME280;17649;51.836;8.330;2023-11-19T11:54:49;100247.44;;;13.23;100.00
30967;BME280;17649;51.836;8.330;2023-11-19T11:57:56;100255.66;;;13.29;100.00
30967;BME280;17649;51.836;8.330;2023-11-19T12:00:58;100248.66;;;13.54;100.00
30967;BME280;17649;51.836;8.330;2023-11-19T12:04:00;100238.13;;;13.44;100.00
30967;BME280;17649;51.836;8.330;2023-11-19T12:07:05;100251.81;;;13.46;100.00
30967;BME280;17649;51.836;8.330;2023-11-19T12:10:08;100244.63;;;13.50;100.00
30967;BME280;17649;51.836;8.330;2023-11-19T12:13:11;100240.19;;;13.63;100.00
30967;BME280;17649;51.836;8.330;2023-11-19T12:16:15;100222.78;;;13.87;100.00
30967;BME280;17649;51.836;8.330;2023-11-19T12:19:19;100220.31;;;14.08;100.00
30967;BME280;17649;51.836;8.330;2023-11-19T12:22:20;100211.13;;;15.26;100.00
30967;BME280;17649;51.836;8.330;2023-11-19T12:25:20;100199.44;;;15.41;100.00
30967;BME280;17649;51.836;8.330;2023-11-19T12:28:22;100196.78;;;14.88;100.00
30967;BME280;17649;51.836;8.330;2023-11-19T12:31:27;100193.50;;;14.19;100.00
30967;BME280;17649;51.836;8.330;2023-11-19T12:34:27;100199.84;;;13.92;100.00
30967;BME280;17649;51.836;8.330;2023-11-19T12:37:28;100199.00;;;13.81;100.00
30967;BME280;17649;51.836;8.330;2023-11-19T12:40:29;100205.41;;;13.88;100.00
30967;BME280;17649;51.836;8.330;2023-11-19T12:43:29;100188.72;;;13.79;100.00
30967;BME280;17649;51.836;8.330;2023-11-19T12:46:31;100207.28;;;13.39;100.00
30967;BME280;17649;51.836;8.330;2023-11-19T12:49:32;100209.25;;;12.75;100.00
30967;BME280;17649;51.836;8.330;2023-11-19T12:52:33;100212.31;;;12.44;100.00
30967;BME280;17649;51.836;8.330;2023-11-19T12:55:34;100223.75;;;12.16;100.00
30967;BME280;17649;51.836;8.330;2023-11-19T12:58:35;100218.78;;;12.00;100.00
30967;BME280;17649;51.836;8.330;2023-11-19T13:01:39;100206.66;;;12.13;100.00
30967;BME280;17649;51.836;8.330;2023-11-19T13:04:41;100230.50;;;11.80;100.00
30967;BME280;17649;51.836;8.330;2023-11-19T13:07:41;100234.47;;;11.72;100.00
30967;BME280;17649;51.836;8.330;2023-11-19T13:13:55;100209.97;;;12.28;100.00
30967;BME280;17649;51.836;8.330;2023-11-19T13:16:56;100203.94;;;12.28;100.00
30967;BME280;17649;51.836;8.330;2023-11-19T13:19:56;100207.78;;;12.22;100.00
30967;BME280;17649;51.836;8.330;2023-11-19T13:23:01;100197.72;;;12.17;100.00
30967;BME280;17649;51.836;8.330;2023-11-19T13:26:02;100195.94;;;12.18;100.00
30967;BME280;17649;51.836;8.330;2023-11-19T13:29:04;100195.44;;;12.26;100.00
30967;BME280;17649;51.836;8.330;2023-11-19T13:32:04;100182.25;;;12.29;100.00
30967;BME280;17649;51.836;8.330;2023-11-19T13:35:06;100188.59;;;12.24;100.00
30967;BME280;17649;51.836;8.330;2023-11-19T13:38:08;100180.09;;;12.35;100.00
30967;BME280;17649;51.836;8.330;2023-11-19T13:41:09;100173.91;;;12.49;100.00
30967;BME280;17649;51.836;8.330;2023-11-19T13:44:10;100179.72;;;12.65;100.00
30967;BME280;17649;51.836;8.330;2023-11-19T13:47:11;100171.75;;;12.79;100.00
30967;BME280;17649;51.836;8.330;2023-11-19T13:50:13;100165.03;;;12.64;100.00
30967;BME280;17649;51.836;8.330;2023-11-19T13:53:14;100165.84;;;12.77;100.00
30967;BME280;17649;51.836;8.330;2023-11-19T13:56:14;100167.75;;;12.63;100.00
30967;BME280;17649;51.836;8.330;2023-11-19T13:59:15;100158.41;;;12.60;100.00
30967;BME280;17649;51.836;8.330;2023-11-19T14:02:15;100151.31;;;12.51;100.00
30967;BME280;17649;51.836;8.330;2023-11-19T14:05:16;100153.22;;;12.60;100.00
30967;BME280;17649;51.836;8.330;2023-11-19T14:08:19;100150.25;;;12.77;100.00
30967;BME280;17649;51.836;8.330;2023-11-19T14:11:19;100155.94;;;12.59;100.00
30967;BME280;17649;51.836;8.330;2023-11-19T14:14:19;100156.56;;;12.49;100.00
30967;BME280;17649;51.836;8.330;2023-11-19T14:17:20;100165.03;;;12.64;100.00
30967;BME280;17649;51.836;8.330;2023-11-19T14:20:21;100171.25;;;12.74;100.00
30967;BME280;17649;51.836;8.330;2023-11-19T14:23:23;100158.53;;;12.59;100.00
30967;BME280;17649;51.836;8.330;2023-11-19T14:26:24;100174.00;;;12.47;100.00
30967;BME280;17649;51.836;8.330;2023-11-19T14:29:25;100180.09;;;12.22;100.00
30967;BME280;17649;51.836;8.330;2023-11-19T14:32:26;100182.75;;;12.46;100.00
30967;BME280;17649;51.836;8.330;2023-11-19T14:35:26;100177.13;;;12.52;100.00
30967;BME280;17649;51.836;8.330;2023-11-19T14:38:27;100169.47;;;12.75;100.00
30967;BME280;17649;51.836;8.330;2023-11-19T14:41:28;100170.66;;;12.71;100.00
30967;BME280;17649;51.836;8.330;2023-11-19T14:44:29;100165.56;;;12.69;100.00
30967;BME280;17649;51.836;8.330;2023-11-19T14:47:30;100163.34;;;12.39;100.00
30967;BME280;17649;51.836;8.330;2023-11-19T14:50:30;100168.69;;;12.25;100.00
30967;BME280;17649;51.836;8.330;2023-11-19T14:53:31;100180.09;;;12.22;100.00
30967;BME280;17649;51.836;8.330;2023-11-19T14:56:32;100178.13;;;12.13;100.00
30967;BME280;17649;51.836;8.330;2023-11-19T14:59:33;100177.28;;;12.13;100.00
30967;BME280;17649;51.836;8.330;2023-11-19T15:02:33;100170.78;;;12.07;100.00
30967;BME280;17649;51.836;8.330;2023-11-19T15:05:33;100178.84;;;12.15;100.00
30967;BME280;17649;51.836;8.330;2023-11-19T15:08:34;100181.75;;;12.11;100.00
30967;BME280;17649;51.836;8.330;2023-11-19T15:11:34;100188.06;;;12.19;100.00
30967;BME280;17649;51.836;8.330;2023-11-19T15:14:35;100179.78;;;12.14;100.00
30967;BME280;17649;51.836;8.330;2023-11-19T15:17:36;100175.63;;;12.24;100.00
30967;BME280;17649;51.836;8.330;2023-11-19T15:20:36;100172.72;;;12.16;100.00
30967;BME280;17649;51.836;8.330;2023-11-19T15:23:36;100177.19;;;12.14;100.00
30967;BME280;17649;51.836;8.330;2023-11-19T15:26:37;100173.53;;;12.04;100.00
30967;BME280;17649;51.836;8.330;2023-11-19T15:29:38;100180.22;;;12.08;100.00
30967;BME280;17649;51.836;8.330;2023-11-19T15:32:39;100179.50;;;12.06;100.00
30967;BME280;17649;51.836;8.330;2023-11-19T15:35:41;100192.53;;;12.17;100.00
30967;BME280;17649;51.836;8.330;2023-11-19T15:38:41;100192.13;;;12.23;100.00
30967;BME280;17649;51.836;8.330;2023-11-19T15:41:42;100174.81;;;12.24;100.00
30967;BME280;17649;51.836;8.330;2023-11-19T15:44:42;100176.31;;;12.52;100.00
30967;BME280;17649;51.836;8.330;2023-11-19T15:47:43;100170.56;;;12.10;100.00
30967;BME280;17649;51.836;8.330;2023-11-19T15:50:44;100170.72;;;12.20;100.00
30967;BME280;17649;51.836;8.330;2023-11-19T15:53:44;100171.38;;;12.23;100.00